Mari Lampton — WDE3648 — position and weather

sailwx.info

Track history (hours):
 
Tides and Currents Weather Stations Pressure Air Temp Water Temp Dewpoint Dewpoint Depression Visibility Wind Speed Wind Dir Waves Ship Positions

Mari Lampton

Owner: MAgnolia Marine Transport Company, Vicksburg, MS. More information available from US FCC via Universal Licensing System and Coast Guard Vessel Documentation Center.

Last reported at 2018-Feb-17 16:48 UTC. Time now 2018-Feb-18 22:33 UTC.
Position N 32°06' W 091°06'.

Length 34 m.

Type: Towing. MMSI: 367342210.

Date/timePositionNaut miles runAvg speedWind from/ knotsBaromVisibWave heightAir tempDewpointWater temp
2018-Feb-17 16:48N 32°06' W 091°06'3 5.1
2018-Feb-17 16:17N 32°07' W 091°03'2 8.1
2018-Feb-17 15:59N 32°08' W 091°01'4 9.0
2018-Feb-17 15:30N 32°12' W 090°59'4 8.7
2018-Feb-17 15:00N 32°16' W 090°58'4 7.8
2018-Feb-17 14:30N 32°19' W 090°54'3 6.3
2018-Feb-17 14:00N 32°21' W 090°57'3 6.3
2018-Feb-17 13:30N 32°23' W 090°60'4 7.3
2018-Feb-17 13:00N 32°26' W 091°02'4 8.8
2018-Feb-17 12:30N 32°28' W 091°07'5 9.0
2018-Feb-17 12:00N 32°33' W 091°06'4 8.8
2018-Feb-17 11:30N 32°37' W 091°09'  
2018-Feb-13 01:54N 38°40' W 090°11'11 3.1
2018-Feb-12 22:18N 38°51' W 090°07'0 0.0
2018-Feb-12 21:18N 38°51' W 090°07'0 0.4
2018-Feb-12 21:00N 38°51' W 090°07'0 0.0
2018-Feb-12 20:30N 38°51' W 090°07'0 0.4
2018-Feb-12 20:00N 38°51' W 090°07'1 1.2
2018-Feb-12 19:30N 38°51' W 090°06'0 0.0
2018-Feb-12 19:00N 38°51' W 090°06'0 0.0
2018-Feb-12 18:30N 38°51' W 090°06'1 1.7
2018-Feb-12 18:00N 38°51' W 090°07'0 0.0
2018-Feb-12 17:30N 38°51' W 090°07'0 0.0
2018-Feb-12 16:58N 38°51' W 090°07'0 0.0
2018-Feb-12 16:30N 38°51' W 090°07'1 1.4
2018-Feb-12 16:00N 38°51' W 090°06'1 1.4
2018-Feb-12 15:30N 38°51' W 090°07'0 0.0
2018-Feb-12 15:00N 38°51' W 090°07'0 0.0
2018-Feb-12 14:30N 38°51' W 090°07'0 0.0
2018-Feb-12 14:00N 38°51' W 090°07'1 1.5
2018-Feb-12 13:29N 38°51' W 090°06'0 0.0
2018-Feb-12 13:00N 38°51' W 090°06'0 0.0
2018-Feb-12 12:30N 38°51' W 090°06'0 0.0
2018-Feb-12 12:00N 38°51' W 090°06'0 0.0
2018-Feb-12 11:30N 38°51' W 090°06'0 0.0
2018-Feb-12 11:00N 38°51' W 090°06'0 0.0
2018-Feb-12 10:30N 38°51' W 090°06'0 0.0
2018-Feb-12 10:00N 38°51' W 090°06'0 0.0
2018-Feb-12 09:30N 38°51' W 090°06'0 0.0
2018-Feb-12 09:00N 38°51' W 090°06'0 0.0
2018-Feb-12 08:30N 38°51' W 090°06'0 0.0
2018-Feb-12 08:00N 38°51' W 090°06'0 0.0
2018-Feb-12 07:30N 38°51' W 090°06'0 0.0
2018-Feb-12 07:00N 38°51' W 090°06'0 0.0
2018-Feb-12 06:30N 38°51' W 090°06'0 0.0
2018-Feb-12 06:00N 38°51' W 090°06'0 0.0
2018-Feb-12 05:30N 38°51' W 090°06'0 0.0
2018-Feb-12 04:59N 38°51' W 090°06'0 0.0
2018-Feb-12 04:29N 38°51' W 090°06'0 0.0
2018-Feb-12 03:59N 38°51' W 090°06'0 0.0
2018-Feb-12 03:30N 38°51' W 090°06'0 0.0
2018-Feb-12 03:00N 38°51' W 090°06'0 0.0
2018-Feb-12 02:28N 38°51' W 090°06'0 0.0
2018-Feb-12 01:59N 38°51' W 090°06'0 0.0
2018-Feb-12 01:30N 38°51' W 090°06'0 0.0
2018-Feb-12 01:00N 38°51' W 090°06'0 0.0
2018-Feb-12 00:30N 38°51' W 090°06'0 0.8
2018-Feb-12 00:00N 38°51' W 090°07'0 0.0
2018-Feb-11 23:30N 38°51' W 090°07'1 1.8
2018-Feb-11 23:00N 38°50' W 090°06'0 0.0
2018-Feb-11 22:30N 38°50' W 090°06'0 0.0
2018-Feb-11 21:58N 38°50' W 090°06'0 0.0
2018-Feb-11 21:30N 38°50' W 090°06'0 1.0
2018-Feb-11 20:59N 38°51' W 090°06'1 1.7
2018-Feb-11 20:30N 38°51' W 090°07'0 0.1
2018-Feb-11 19:59N 38°51' W 090°07'0 0.4
2018-Feb-11 19:30N 38°51' W 090°07'1 1.3
2018-Feb-11 19:00N 38°51' W 090°06'0 0.3
2018-Feb-11 18:26N 38°51' W 090°06'0 0.0
2018-Feb-11 17:58N 38°51' W 090°06'0 0.0
2018-Feb-11 17:22N 38°51' W 090°06'0 0.0
2018-Feb-11 17:00N 38°51' W 090°06'0 0.0
2018-Feb-11 16:30N 38°51' W 090°06'0 0.0
2018-Feb-11 15:59N 38°51' W 090°06'0 0.8
2018-Feb-11 15:30N 38°51' W 090°07'0 0.7
2018-Feb-11 14:58N 38°51' W 090°06'0 0.0
2018-Feb-11 14:30N 38°51' W 090°06'0 0.0
2018-Feb-11 14:00N 38°51' W 090°06'0 0.0
2018-Feb-11 13:30N 38°51' W 090°06'0 0.0
2018-Feb-11 13:00N 38°51' W 090°06'0 0.0
2018-Feb-11 12:26N 38°51' W 090°06'0 0.0
2018-Feb-11 11:53N 38°51' W 090°06'0 0.0
2018-Feb-11 11:29N 38°51' W 090°06'0 0.0
2018-Feb-11 11:00N 38°51' W 090°06'0 0.0
2018-Feb-11 10:30N 38°51' W 090°06'0 0.0
2018-Feb-11 10:00N 38°51' W 090°06'0 0.0
2018-Feb-11 09:29N 38°51' W 090°06'0 0.0
2018-Feb-11 09:00N 38°51' W 090°06'0 0.0
2018-Feb-11 08:29N 38°51' W 090°06'0 0.0
2018-Feb-11 08:00N 38°51' W 090°06'0 0.0
2018-Feb-11 07:28N 38°51' W 090°06'0 0.0
2018-Feb-11 07:00N 38°51' W 090°06'0 0.0
2018-Feb-11 06:27N 38°51' W 090°06'0 0.0
2018-Feb-11 05:57N 38°51' W 090°06'0 0.0
2018-Feb-11 05:29N 38°51' W 090°06'0 0.0
2018-Feb-11 04:58N 38°51' W 090°06'0 0.0
2018-Feb-11 04:30N 38°51' W 090°06'0 0.0
2018-Feb-11 04:00N 38°51' W 090°06'0 0.0
2018-Feb-11 03:30N 38°51' W 090°06'0 0.0
2018-Feb-11 03:00N 38°51' W 090°06'0 0.0
2018-Feb-11 02:29N 38°51' W 090°06'0 0.0
2018-Feb-11 02:00N 38°51' W 090°06'0 0.0
2018-Feb-11 01:28N 38°51' W 090°06'0 0.0
2018-Feb-11 01:00N 38°51' W 090°06'0 0.0
2018-Feb-11 00:29N 38°51' W 090°06'0 0.0
2018-Feb-11 00:00N 38°51' W 090°06'0 0.0
2018-Feb-10 23:30N 38°51' W 090°06'0 0.0
2018-Feb-10 22:59N 38°51' W 090°06'0 0.0
2018-Feb-10 22:30N 38°51' W 090°06'0 0.1
2018-Feb-10 22:00N 38°51' W 090°06'1 1.1
2018-Feb-10 21:30N 38°50' W 090°07'1 2.3
2018-Feb-10 21:00N 38°51' W 090°07'0 0.1
2018-Feb-10 20:30N 38°51' W 090°07'1 1.1
2018-Feb-10 19:52N 38°51' W 090°06'0 0.1
2018-Feb-10 19:29N 38°51' W 090°06'1 1.3
2018-Feb-10 18:53N 38°51' W 090°07'0 0.1
2018-Feb-10 18:30N 38°51' W 090°07'0 0.3
2018-Feb-10 18:00N 38°51' W 090°07'1 1.4
2018-Feb-10 17:30N 38°50' W 090°06'3 5.9
2018-Feb-10 17:00N 38°48' W 090°07'3 5.6
2018-Feb-10 16:29N 38°45' W 090°09'3 5.7
2018-Feb-10 15:59N 38°42' W 090°11'1 1.3
2018-Feb-10 15:30N 38°42' W 090°11'1 2.1
2018-Feb-10 15:00N 38°41' W 090°11'  
Track history (hours):
 
Tides and Currents Weather Stations Pressure Air Temp Water Temp Dewpoint Dewpoint Depression Visibility Wind Speed Wind Dir Waves Ship Positions

Mari Lampton

Owner: MAgnolia Marine Transport Company, Vicksburg, MS. More information available from US FCC via Universal Licensing System and Coast Guard Vessel Documentation Center.

Last reported at 2018-Feb-17 16:48 UTC. Time now 2018-Feb-18 22:33 UTC.
Position N 32°06' W 091°06'.

Length 34 m.

Type: Towing. MMSI: 367342210.

Date/timePositionNaut miles runAvg speedWind from/ knotsBaromVisibWave heightAir tempDewpointWater temp
2018-Feb-17 16:48N 32°06' W 091°06'3 5.1
2018-Feb-17 16:17N 32°07' W 091°03'2 8.1
2018-Feb-17 15:59N 32°08' W 091°01'4 9.0
2018-Feb-17 15:30N 32°12' W 090°59'4 8.7
2018-Feb-17 15:00N 32°16' W 090°58'4 7.8
2018-Feb-17 14:30N 32°19' W 090°54'3 6.3
2018-Feb-17 14:00N 32°21' W 090°57'3 6.3
2018-Feb-17 13:30N 32°23' W 090°60'4 7.3
2018-Feb-17 13:00N 32°26' W 091°02'4 8.8
2018-Feb-17 12:30N 32°28' W 091°07'5 9.0
2018-Feb-17 12:00N 32°33' W 091°06'4 8.8
2018-Feb-17 11:30N 32°37' W 091°09'  
2018-Feb-13 01:54N 38°40' W 090°11'11 3.1
2018-Feb-12 22:18N 38°51' W 090°07'0 0.0
2018-Feb-12 21:18N 38°51' W 090°07'0 0.4
2018-Feb-12 21:00N 38°51' W 090°07'0 0.0
2018-Feb-12 20:30N 38°51' W 090°07'0 0.4
2018-Feb-12 20:00N 38°51' W 090°07'1 1.2
2018-Feb-12 19:30N 38°51' W 090°06'0 0.0
2018-Feb-12 19:00N 38°51' W 090°06'0 0.0
2018-Feb-12 18:30N 38°51' W 090°06'1 1.7
2018-Feb-12 18:00N 38°51' W 090°07'0 0.0
2018-Feb-12 17:30N 38°51' W 090°07'0 0.0
2018-Feb-12 16:58N 38°51' W 090°07'0 0.0
2018-Feb-12 16:30N 38°51' W 090°07'1 1.4
2018-Feb-12 16:00N 38°51' W 090°06'1 1.4
2018-Feb-12 15:30N 38°51' W 090°07'0 0.0
2018-Feb-12 15:00N 38°51' W 090°07'0 0.0
2018-Feb-12 14:30N 38°51' W 090°07'0 0.0
2018-Feb-12 14:00N 38°51' W 090°07'1 1.5
2018-Feb-12 13:29N 38°51' W 090°06'0 0.0
2018-Feb-12 13:00N 38°51' W 090°06'0 0.0
2018-Feb-12 12:30N 38°51' W 090°06'0 0.0
2018-Feb-12 12:00N 38°51' W 090°06'0 0.0
2018-Feb-12 11:30N 38°51' W 090°06'0 0.0
2018-Feb-12 11:00N 38°51' W 090°06'0 0.0
2018-Feb-12 10:30N 38°51' W 090°06'0 0.0
2018-Feb-12 10:00N 38°51' W 090°06'0 0.0
2018-Feb-12 09:30N 38°51' W 090°06'0 0.0
2018-Feb-12 09:00N 38°51' W 090°06'0 0.0
2018-Feb-12 08:30N 38°51' W 090°06'0 0.0
2018-Feb-12 08:00N 38°51' W 090°06'0 0.0
2018-Feb-12 07:30N 38°51' W 090°06'0 0.0
2018-Feb-12 07:00N 38°51' W 090°06'0 0.0
2018-Feb-12 06:30N 38°51' W 090°06'0 0.0
2018-Feb-12 06:00N 38°51' W 090°06'0 0.0
2018-Feb-12 05:30N 38°51' W 090°06'0 0.0
2018-Feb-12 04:59N 38°51' W 090°06'0 0.0
2018-Feb-12 04:29N 38°51' W 090°06'0 0.0
2018-Feb-12 03:59N 38°51' W 090°06'0 0.0
2018-Feb-12 03:30N 38°51' W 090°06'0 0.0
2018-Feb-12 03:00N 38°51' W 090°06'0 0.0
2018-Feb-12 02:28N 38°51' W 090°06'0 0.0
2018-Feb-12 01:59N 38°51' W 090°06'0 0.0
2018-Feb-12 01:30N 38°51' W 090°06'0 0.0
2018-Feb-12 01:00N 38°51' W 090°06'0 0.0
2018-Feb-12 00:30N 38°51' W 090°06'0 0.8
2018-Feb-12 00:00N 38°51' W 090°07'0 0.0
2018-Feb-11 23:30N 38°51' W 090°07'1 1.8
2018-Feb-11 23:00N 38°50' W 090°06'0 0.0
2018-Feb-11 22:30N 38°50' W 090°06'0 0.0
2018-Feb-11 21:58N 38°50' W 090°06'0 0.0
2018-Feb-11 21:30N 38°50' W 090°06'0 1.0
2018-Feb-11 20:59N 38°51' W 090°06'1 1.7
2018-Feb-11 20:30N 38°51' W 090°07'0 0.1
2018-Feb-11 19:59N 38°51' W 090°07'0 0.4
2018-Feb-11 19:30N 38°51' W 090°07'1 1.3
2018-Feb-11 19:00N 38°51' W 090°06'0 0.3
2018-Feb-11 18:26N 38°51' W 090°06'0 0.0
2018-Feb-11 17:58N 38°51' W 090°06'0 0.0
2018-Feb-11 17:22N 38°51' W 090°06'0 0.0
2018-Feb-11 17:00N 38°51' W 090°06'0 0.0
2018-Feb-11 16:30N 38°51' W 090°06'0 0.0
2018-Feb-11 15:59N 38°51' W 090°06'0 0.8
2018-Feb-11 15:30N 38°51' W 090°07'0 0.7
2018-Feb-11 14:58N 38°51' W 090°06'0 0.0
2018-Feb-11 14:30N 38°51' W 090°06'0 0.0
2018-Feb-11 14:00N 38°51' W 090°06'0 0.0
2018-Feb-11 13:30N 38°51' W 090°06'0 0.0
2018-Feb-11 13:00N 38°51' W 090°06'0 0.0
2018-Feb-11 12:26N 38°51' W 090°06'0 0.0
2018-Feb-11 11:53N 38°51' W 090°06'0 0.0
2018-Feb-11 11:29N 38°51' W 090°06'0 0.0
2018-Feb-11 11:00N 38°51' W 090°06'0 0.0
2018-Feb-11 10:30N 38°51' W 090°06'0 0.0
2018-Feb-11 10:00N 38°51' W 090°06'0 0.0
2018-Feb-11 09:29N 38°51' W 090°06'0 0.0
2018-Feb-11 09:00N 38°51' W 090°06'0 0.0
2018-Feb-11 08:29N 38°51' W 090°06'0 0.0
2018-Feb-11 08:00N 38°51' W 090°06'0 0.0
2018-Feb-11 07:28N 38°51' W 090°06'0 0.0
2018-Feb-11 07:00N 38°51' W 090°06'0 0.0
2018-Feb-11 06:27N 38°51' W 090°06'0 0.0
2018-Feb-11 05:57N 38°51' W 090°06'0 0.0
2018-Feb-11 05:29N 38°51' W 090°06'0 0.0
2018-Feb-11 04:58N 38°51' W 090°06'0 0.0
2018-Feb-11 04:30N 38°51' W 090°06'0 0.0
2018-Feb-11 04:00N 38°51' W 090°06'0 0.0
2018-Feb-11 03:30N 38°51' W 090°06'0 0.0
2018-Feb-11 03:00N 38°51' W 090°06'0 0.0
2018-Feb-11 02:29N 38°51' W 090°06'0 0.0
2018-Feb-11 02:00N 38°51' W 090°06'0 0.0
2018-Feb-11 01:28N 38°51' W 090°06'0 0.0
2018-Feb-11 01:00N 38°51' W 090°06'0 0.0
2018-Feb-11 00:29N 38°51' W 090°06'0 0.0
2018-Feb-11 00:00N 38°51' W 090°06'0 0.0
2018-Feb-10 23:30N 38°51' W 090°06'0 0.0
2018-Feb-10 22:59N 38°51' W 090°06'0 0.0
2018-Feb-10 22:30N 38°51' W 090°06'0 0.1
2018-Feb-10 22:00N 38°51' W 090°06'1 1.1
2018-Feb-10 21:30N 38°50' W 090°07'1 2.3
2018-Feb-10 21:00N 38°51' W 090°07'0 0.1
2018-Feb-10 20:30N 38°51' W 090°07'1 1.1
2018-Feb-10 19:52N 38°51' W 090°06'0 0.1
2018-Feb-10 19:29N 38°51' W 090°06'1 1.3
2018-Feb-10 18:53N 38°51' W 090°07'0 0.1
2018-Feb-10 18:30N 38°51' W 090°07'0 0.3
2018-Feb-10 18:00N 38°51' W 090°07'1 1.4
2018-Feb-10 17:30N 38°50' W 090°06'3 5.9
2018-Feb-10 17:00N 38°48' W 090°07'3 5.6
2018-Feb-10 16:29N 38°45' W 090°09'3 5.7
2018-Feb-10 15:59N 38°42' W 090°11'1 1.3
2018-Feb-10 15:30N 38°42' W 090°11'1 2.1
2018-Feb-10 15:00N 38°41' W 090°11'  

Dump ship's entire track history